createdAt,value
2022-12-08T00:01:40.994Z,84.97
2022-12-08T00:04:09.412Z,85.02
2022-12-08T00:06:56.792Z,84.94
2022-12-08T00:09:37.988Z,84.78
2022-12-08T00:12:08.780Z,84.61
2022-12-08T00:14:38.374Z,84.36
2022-12-08T00:17:07.488Z,84.42
2022-12-08T00:19:35.682Z,84.09
2022-12-08T00:22:03.989Z,84.23
2022-12-08T00:24:35.657Z,83.92
2022-12-08T00:27:03.741Z,84.31
2022-12-08T00:29:31.908Z,84.35
2022-12-08T00:32:00.152Z,84.29
2022-12-08T00:34:28.370Z,84.25
2022-12-08T00:36:56.296Z,84.24
2022-12-08T00:39:24.491Z,84.52
2022-12-08T00:42:11.481Z,84.63
2022-12-08T00:44:39.938Z,84.52
2022-12-08T00:47:07.851Z,84.90
2022-12-08T00:49:36.121Z,84.71
2022-12-08T00:52:04.134Z,84.53
2022-12-08T00:54:32.330Z,84.57
2022-12-08T00:57:01.604Z,84.34
2022-12-08T00:59:29.930Z,84.14
2022-12-08T01:01:57.912Z,83.96
2022-12-08T01:04:26.061Z,84.01
2022-12-08T01:06:53.957Z,83.75
2022-12-08T01:09:22.101Z,84.06
2022-12-08T01:11:50.020Z,84.03
2022-12-08T01:14:19.529Z,83.77
2022-12-08T01:16:48.145Z,83.81
2022-12-08T01:19:17.329Z,84.09
2022-12-08T01:21:46.372Z,84.54
2022-12-08T01:24:16.165Z,84.59
2022-12-08T01:26:44.407Z,85.12
2022-12-08T01:29:12.852Z,85.15
2022-12-08T01:31:42.185Z,85.20
2022-12-08T01:34:11.741Z,85.16
2022-12-08T01:36:39.802Z,85.08
2022-12-08T01:39:09.730Z,85.21
2022-12-08T01:41:38.828Z,85.21
2022-12-08T01:44:40.177Z,85.16
2022-12-08T01:47:09.647Z,85.45
2022-12-08T01:49:37.967Z,85.54
2022-12-08T01:52:11.054Z,85.73
2022-12-08T01:54:43.637Z,86.25
2022-12-08T01:57:13.674Z,86.04
2022-12-08T01:59:45.340Z,85.95
2022-12-08T02:02:14.769Z,86.24
2022-12-08T02:04:43.045Z,86.02
2022-12-08T02:07:11.952Z,85.75
2022-12-08T02:09:41.284Z,85.54
2022-12-08T02:12:10.085Z,85.64
2022-12-08T02:14:38.305Z,85.63
2022-12-08T02:17:11.870Z,85.48
2022-12-08T02:20:18.610Z,85.40
2022-12-08T02:22:53.658Z,85.44
2022-12-08T02:25:29.638Z,85.31
2022-12-08T02:28:03.965Z,85.45
2022-12-08T02:30:39.243Z,85.46
2022-12-08T02:33:39.669Z,85.38
2022-12-08T02:36:16.363Z,85.74
2022-12-08T02:38:48.525Z,85.69
2022-12-08T02:41:33.274Z,85.98
2022-12-08T02:44:06.547Z,85.59
2022-12-08T02:46:39.338Z,85.46
2022-12-08T02:49:08.048Z,85.34
2022-12-08T02:51:37.520Z,85.47
2022-12-08T02:54:05.897Z,85.37
2022-12-08T02:56:59.981Z,85.41
2022-12-08T02:59:38.214Z,85.27
2022-12-08T03:02:18.409Z,85.54
2022-12-08T03:04:48.049Z,85.88
2022-12-08T03:07:22.110Z,85.56
2022-12-08T03:09:52.823Z,85.77
2022-12-08T03:12:25.157Z,85.83
2022-12-08T03:14:54.717Z,85.88
2022-12-08T03:17:25.906Z,85.93
2022-12-08T03:19:54.707Z,86.10
2022-12-08T03:22:26.720Z,86.04
2022-12-08T03:24:54.979Z,85.92
2022-12-08T03:27:24.900Z,85.80
2022-12-08T03:29:54.486Z,85.77
2022-12-08T03:32:25.518Z,85.71
2022-12-08T03:34:53.999Z,85.57
2022-12-08T03:37:23.743Z,85.42
2022-12-08T03:39:51.647Z,85.98
2022-12-08T03:42:19.821Z,86.03
2022-12-08T03:44:47.736Z,86.58
2022-12-08T03:47:15.915Z,86.92
2022-12-08T03:49:43.824Z,86.99
2022-12-08T03:52:11.970Z,86.99
2022-12-08T03:54:41.254Z,87.28
2022-12-08T03:57:09.642Z,87.48
2022-12-08T03:59:37.550Z,87.48
2022-12-08T04:02:05.734Z,87.68
2022-12-08T04:04:33.705Z,87.90
2022-12-08T04:07:01.906Z,88.03
2022-12-08T04:09:29.859Z,88.11
2022-12-08T04:11:59.360Z,88.35
2022-12-08T04:14:27.337Z,88.34
2022-12-08T04:16:55.468Z,88.44
2022-12-08T04:19:23.413Z,88.39
2022-12-08T04:21:51.557Z,88.18
2022-12-08T04:24:19.440Z,87.86
2022-12-08T04:26:49.641Z,87.90
2022-12-08T04:29:19.093Z,87.74
2022-12-08T04:31:47.275Z,88.05
2022-12-08T04:34:15.179Z,87.80
2022-12-08T04:36:43.342Z,87.79
2022-12-08T04:39:11.269Z,87.61
2022-12-08T04:41:39.405Z,87.63
2022-12-08T04:44:07.262Z,87.55
2022-12-08T04:46:41.696Z,87.88
2022-12-08T04:49:11.224Z,87.93
2022-12-08T04:51:39.445Z,88.06
2022-12-08T04:54:07.343Z,88.31
2022-12-08T04:56:35.585Z,88.00
2022-12-08T04:59:03.640Z,88.05
2022-12-08T05:01:31.987Z,87.99
2022-12-08T05:04:01.425Z,88.06
2022-12-08T05:06:29.613Z,88.21
2022-12-08T05:08:57.536Z,88.09
2022-12-08T05:11:25.828Z,87.84
2022-12-08T05:13:53.697Z,87.86
2022-12-08T05:16:22.017Z,88.20
2022-12-08T05:18:49.934Z,88.24
2022-12-08T05:21:19.499Z,88.06
2022-12-08T05:23:47.404Z,88.20
2022-12-08T05:26:15.597Z,88.08
2022-12-08T05:28:44.568Z,88.15
2022-12-08T05:31:13.475Z,88.45
2022-12-08T05:33:41.751Z,88.08
2022-12-08T05:36:10.267Z,87.84
2022-12-08T05:38:39.533Z,87.99
2022-12-08T05:41:07.946Z,87.89
2022-12-08T05:43:35.889Z,88.40
2022-12-08T05:46:04.107Z,88.16
2022-12-08T05:48:32.043Z,88.06
2022-12-08T05:51:00.932Z,88.21
2022-12-08T05:53:31.251Z,88.18
2022-12-08T05:56:01.040Z,88.05
2022-12-08T05:58:28.986Z,88.07
2022-12-08T06:00:57.114Z,88.00
2022-12-08T06:03:25.324Z,88.02
2022-12-08T06:05:53.640Z,88.29
2022-12-08T06:08:21.578Z,88.16
2022-12-08T06:10:49.999Z,88.07
2022-12-08T06:13:19.246Z,88.15
2022-12-08T06:15:47.374Z,88.43
2022-12-08T06:18:15.297Z,88.33
2022-12-08T06:20:43.479Z,88.11
2022-12-08T06:23:11.562Z,87.91
2022-12-08T06:25:39.717Z,87.88
2022-12-08T06:28:08.537Z,87.67
2022-12-08T06:30:38.601Z,87.85
2022-12-08T06:33:06.563Z,87.69
2022-12-08T06:35:34.768Z,88.14
2022-12-08T06:38:02.625Z,88.40
2022-12-08T06:40:30.771Z,87.87
2022-12-08T06:42:58.668Z,87.68
2022-12-08T06:45:26.764Z,87.22
2022-12-08T06:47:56.029Z,87.41
2022-12-08T06:50:24.305Z,86.81
2022-12-08T06:53:02.759Z,87.11
2022-12-08T06:58:21.833Z,86.99
2022-12-08T07:00:50.125Z,86.77
2022-12-08T07:03:19.499Z,86.83
2022-12-08T07:05:47.803Z,86.95
2022-12-08T07:08:15.826Z,86.97
2022-12-08T07:10:44.031Z,86.98
2022-12-08T07:13:12.053Z,87.07
2022-12-08T07:15:40.192Z,87.25
2022-12-08T07:18:08.091Z,87.13
2022-12-08T07:20:37.803Z,86.98
2022-12-08T07:23:05.665Z,87.20
2022-12-08T07:25:33.946Z,87.31
2022-12-08T07:28:01.813Z,87.09
2022-12-08T07:30:30.107Z,86.74
2022-12-08T07:32:58.200Z,86.88
2022-12-08T07:35:26.683Z,86.81
2022-12-08T07:37:55.936Z,86.91
2022-12-08T07:40:24.161Z,87.02
2022-12-08T07:42:52.019Z,86.98
2022-12-08T07:45:20.294Z,86.93
2022-12-08T07:47:48.241Z,86.65
2022-12-08T07:50:16.413Z,86.91
2022-12-08T07:52:44.333Z,87.05
2022-12-08T07:55:13.893Z,87.02
2022-12-08T07:57:41.757Z,87.17
2022-12-08T08:00:12.218Z,86.80
2022-12-08T08:02:40.751Z,86.78
2022-12-08T08:05:10.226Z,86.77
2022-12-08T08:07:38.633Z,86.72
2022-12-08T08:10:08.272Z,86.50
2022-12-08T08:12:37.994Z,86.73
2022-12-08T08:15:08.510Z,86.23
2022-12-08T08:17:38.273Z,86.07
2022-12-08T08:20:08.507Z,86.06
2022-12-08T08:22:36.965Z,86.02
2022-12-08T08:25:05.768Z,85.80
2022-12-08T08:27:33.693Z,85.85
2022-12-08T08:30:06.695Z,85.86
2022-12-08T08:32:35.779Z,85.95
2022-12-08T08:35:04.347Z,85.94
2022-12-08T08:37:32.395Z,85.91
2022-12-08T08:40:00.598Z,85.86
2022-12-08T08:42:28.778Z,85.70
2022-12-08T08:44:56.999Z,85.65
2022-12-08T08:47:26.332Z,85.60
2022-12-08T08:49:54.547Z,85.84
2022-12-08T08:52:22.533Z,86.04
2022-12-08T08:54:50.668Z,86.13
2022-12-08T08:57:25.056Z,86.41
2022-12-08T08:59:53.948Z,86.25
2022-12-08T09:02:22.109Z,86.10
2022-12-08T09:04:51.906Z,86.21
2022-12-08T09:07:20.033Z,85.91
2022-12-08T09:09:48.414Z,85.83
2022-12-08T09:12:16.438Z,85.76
2022-12-08T09:14:45.763Z,85.87
2022-12-08T09:17:13.844Z,84.95
2022-12-08T09:19:42.557Z,85.28
2022-12-08T09:22:11.765Z,85.21
2022-12-08T09:24:41.258Z,84.80
2022-12-08T09:27:09.231Z,85.03
2022-12-08T09:29:37.472Z,85.05
2022-12-08T09:32:05.770Z,84.81
2022-12-08T09:34:34.014Z,84.91
2022-12-08T09:37:01.945Z,84.87
2022-12-08T09:39:31.456Z,84.67
2022-12-08T09:42:01.867Z,84.27
2022-12-08T09:44:57.237Z,83.83
2022-12-08T09:47:32.124Z,84.14
2022-12-08T09:50:07.560Z,83.74
2022-12-08T09:52:39.552Z,82.71
2022-12-08T09:55:16.844Z,82.51
2022-12-08T09:57:45.779Z,82.23
2022-12-08T10:00:15.248Z,82.74
2022-12-08T10:02:43.816Z,82.15
2022-12-08T10:05:14.727Z,81.70
2022-12-08T10:07:46.845Z,81.45
2022-12-08T10:10:26.052Z,81.80
2022-12-08T10:12:56.660Z,81.89
2022-12-08T10:15:36.236Z,82.03
2022-12-08T10:18:10.098Z,82.50
2022-12-08T10:20:40.953Z,82.66
2022-12-08T10:23:11.069Z,81.91
2022-12-08T10:25:44.449Z,82.46
2022-12-08T10:28:12.829Z,82.65
2022-12-08T10:30:41.232Z,81.89
2022-12-08T10:33:14.487Z,81.49
2022-12-08T10:35:47.330Z,81.50
2022-12-08T10:38:20.799Z,80.56
2022-12-08T10:40:51.961Z,81.01
2022-12-08T10:43:22.770Z,81.37
2022-12-08T10:45:51.137Z,80.42
2022-12-08T10:48:20.529Z,80.32
2022-12-08T10:50:55.045Z,80.35
2022-12-08T10:53:24.834Z,80.56
2022-12-08T10:56:06.349Z,80.68
2022-12-08T10:58:36.156Z,80.89
2022-12-08T11:01:07.998Z,81.32
2022-12-08T11:03:37.621Z,81.58
2022-12-08T11:06:14.378Z,81.28
2022-12-08T11:08:51.755Z,81.54
2022-12-08T11:11:29.071Z,81.13
2022-12-08T11:13:57.633Z,80.84
2022-12-08T11:16:26.057Z,80.85
2022-12-08T11:18:57.921Z,80.33
2022-12-08T11:21:36.351Z,79.58
2022-12-08T11:24:21.939Z,80.50
2022-12-08T11:26:54.016Z,80.53
2022-12-08T11:29:22.501Z,80.19
2022-12-08T11:31:53.788Z,79.84
2022-12-08T11:34:27.848Z,80.03
2022-12-08T11:36:56.810Z,80.65
2022-12-08T11:39:27.648Z,80.09
2022-12-08T11:41:58.008Z,79.69
2022-12-08T11:44:30.336Z,80.03
2022-12-08T11:47:01.796Z,79.96
2022-12-08T11:49:35.377Z,79.58
2022-12-08T11:52:12.037Z,79.91
2022-12-08T11:54:43.647Z,79.47
2022-12-08T11:57:16.414Z,79.38
2022-12-08T11:59:46.197Z,78.49
2022-12-08T12:02:17.330Z,78.76
2022-12-08T12:04:47.871Z,78.65
2022-12-08T12:07:28.312Z,78.38
2022-12-08T12:10:10.665Z,78.76
2022-12-08T12:13:01.138Z,78.85
2022-12-08T12:15:52.448Z,78.85
2022-12-08T12:18:26.570Z,78.28
2022-12-08T12:20:57.655Z,78.34
2022-12-08T12:23:30.894Z,77.60
2022-12-08T12:26:00.723Z,77.17
2022-12-08T12:28:35.851Z,77.28
2022-12-08T12:31:07.396Z,77.00
2022-12-08T12:33:36.176Z,77.76
2022-12-08T12:36:06.760Z,77.75
2022-12-08T12:38:54.547Z,77.67
2022-12-08T12:41:25.700Z,77.78
2022-12-08T12:44:35.755Z,77.73
2022-12-08T12:47:08.622Z,78.21
2022-12-08T12:49:52.468Z,78.21
2022-12-08T12:52:40.482Z,78.08
2022-12-08T12:55:25.964Z,78.94
2022-12-08T12:57:55.410Z,78.84
2022-12-08T13:00:24.998Z,78.96
2022-12-08T13:02:57.448Z,78.44
2022-12-08T13:05:27.724Z,78.16
2022-12-08T13:07:57.436Z,77.96
2022-12-08T13:10:28.330Z,76.81
2022-12-08T13:13:05.628Z,76.44
2022-12-08T13:15:39.217Z,76.00
2022-12-08T13:18:17.926Z,76.06
2022-12-08T13:20:48.521Z,75.67
2022-12-08T13:23:31.207Z,75.57
2022-12-08T13:26:17.899Z,74.56
2022-12-08T13:29:06.073Z,73.81
2022-12-08T13:31:38.309Z,73.75
2022-12-08T13:34:08.210Z,74.29
2022-12-08T13:36:38.626Z,74.03
2022-12-08T13:39:07.369Z,73.46
2022-12-08T13:41:38.235Z,70.65
2022-12-08T13:45:03.552Z,69.08
2022-12-08T13:47:32.161Z,68.84
2022-12-08T13:58:29.031Z,72.41
2022-12-08T14:01:00.623Z,73.46
2022-12-08T14:03:29.168Z,74.33
2022-12-08T14:06:14.260Z,74.29
2022-12-08T14:09:00.396Z,75.23
2022-12-08T14:11:36.706Z,76.03
2022-12-08T14:14:08.205Z,75.85
2022-12-08T14:16:39.559Z,75.85
2022-12-08T14:19:17.239Z,76.18
2022-12-08T14:22:07.083Z,76.15
2022-12-08T14:24:39.036Z,76.35
2022-12-08T14:27:10.181Z,77.08
2022-12-08T14:29:43.695Z,77.75
2022-12-08T14:32:24.107Z,78.35
2022-12-08T14:34:58.482Z,78.34
2022-12-08T14:37:29.502Z,78.88
2022-12-08T14:40:02.944Z,78.74
2022-12-08T14:42:31.417Z,78.44
2022-12-08T14:45:02.305Z,78.71
2022-12-08T14:47:31.981Z,78.92
2022-12-08T14:50:00.422Z,78.55
2022-12-08T14:52:30.288Z,78.76
2022-12-08T14:54:58.836Z,79.21
2022-12-08T14:57:33.205Z,79.23
2022-12-08T15:00:08.835Z,79.30
2022-12-08T15:02:42.974Z,79.55
2022-12-08T15:05:13.312Z,79.15
2022-12-08T15:07:49.333Z,79.26
2022-12-08T15:10:23.814Z,78.99
2022-12-08T15:13:02.650Z,78.78
2022-12-08T15:15:32.750Z,78.75
2022-12-08T15:18:13.090Z,79.42
2022-12-08T15:20:43.048Z,80.12
2022-12-08T15:23:22.687Z,79.98
2022-12-08T15:25:51.839Z,80.44
2022-12-08T15:28:25.225Z,80.45
2022-12-08T15:30:57.205Z,80.51
2022-12-08T15:33:25.137Z,80.29
2022-12-08T15:35:53.590Z,80.18
2022-12-08T15:38:24.650Z,80.23
2022-12-08T15:40:53.191Z,80.19
2022-12-08T15:43:21.381Z,79.99
2022-12-08T15:45:58.522Z,80.40
2022-12-08T15:48:29.377Z,80.48
2022-12-08T15:50:57.920Z,80.07
2022-12-08T15:53:27.331Z,80.28
2022-12-08T15:56:26.224Z,79.52
2022-12-08T15:58:59.368Z,78.72
2022-12-08T16:01:28.049Z,78.86
2022-12-08T16:09:38.392Z,78.39
2022-12-08T16:12:25.392Z,77.82
2022-12-08T16:17:42.318Z,77.83
2022-12-08T16:20:14.234Z,77.78
2022-12-08T16:22:54.563Z,77.78
2022-12-08T16:25:46.060Z,77.52
2022-12-08T16:28:52.232Z,77.37
2022-12-08T16:31:10.257Z,77.47
2022-12-08T16:33:41.541Z,77.55
2022-12-08T16:36:10.629Z,77.58
2022-12-08T16:38:38.802Z,77.55
2022-12-08T16:41:30.057Z,77.34
2022-12-08T16:44:02.031Z,77.52
2022-12-08T16:46:32.526Z,77.64
2022-12-08T16:49:00.775Z,77.73
2022-12-08T16:51:28.797Z,77.44
2022-12-08T16:53:58.185Z,77.59
2022-12-08T16:56:32.603Z,77.17
2022-12-08T16:59:02.367Z,77.24
2022-12-08T17:01:30.671Z,77.30
2022-12-08T17:04:29.839Z,77.27
2022-12-08T17:06:46.765Z,77.22
2022-12-08T17:09:14.918Z,77.26
2022-12-08T17:11:44.291Z,77.38
2022-12-08T17:14:13.144Z,77.36
2022-12-08T17:16:41.642Z,77.40
2022-12-08T17:19:10.142Z,77.76
2022-12-08T17:21:38.028Z,77.83
2022-12-08T17:24:06.728Z,77.76
2022-12-08T17:26:35.366Z,77.71
2022-12-08T17:29:05.384Z,77.65
2022-12-08T17:31:35.255Z,77.72
2022-12-08T17:34:09.451Z,77.59
2022-12-08T17:36:37.690Z,77.71
2022-12-08T17:39:09.244Z,77.40
2022-12-08T17:41:39.018Z,77.64
2022-12-08T17:44:13.481Z,77.85
2022-12-08T17:46:44.295Z,77.71
2022-12-08T17:49:19.054Z,78.00
2022-12-08T17:51:48.506Z,78.04
2022-12-08T17:54:19.057Z,77.98
2022-12-08T17:56:47.647Z,77.84
2022-12-08T17:59:17.300Z,77.64
2022-12-08T18:01:45.517Z,77.81
2022-12-08T18:04:13.860Z,77.84
2022-12-08T18:06:42.114Z,77.72
2022-12-08T18:09:10.757Z,77.63
2022-12-08T18:11:38.927Z,77.89
2022-12-08T18:14:10.284Z,77.89
2022-12-08T18:16:41.436Z,78.04
2022-12-08T18:19:10.284Z,77.76
2022-12-08T18:21:40.206Z,77.88
2022-12-08T18:24:10.031Z,77.99
2022-12-08T18:26:38.544Z,78.01
2022-12-08T18:29:06.889Z,77.83
2022-12-08T18:31:34.922Z,78.00
2022-12-08T18:34:04.792Z,78.00
2022-12-08T18:36:32.907Z,78.12
2022-12-08T18:39:03.469Z,78.15
2022-12-08T18:41:35.321Z,78.43
2022-12-08T18:44:03.488Z,78.32
2022-12-08T18:46:32.399Z,78.39
2022-12-08T18:49:00.933Z,78.44
2022-12-08T18:51:32.266Z,78.47
2022-12-08T18:54:08.033Z,78.39
2022-12-08T18:56:37.636Z,78.48
2022-12-08T18:59:08.262Z,78.56
2022-12-08T19:01:41.776Z,78.49
2022-12-08T19:04:27.849Z,78.36
2022-12-08T19:06:58.601Z,78.44
2022-12-08T19:09:29.102Z,78.72
2022-12-08T19:11:58.821Z,78.73
2022-12-08T19:14:28.716Z,78.28
2022-12-08T19:16:57.733Z,78.13
2022-12-08T19:19:26.256Z,78.23
2022-12-08T19:21:54.621Z,78.21
2022-12-08T19:24:24.811Z,78.48
2022-12-08T19:26:54.169Z,78.30
2022-12-08T19:29:28.058Z,78.16
2022-12-08T19:31:57.661Z,78.28
2022-12-08T19:34:26.669Z,78.02
2022-12-08T19:36:55.585Z,77.82
2022-12-08T19:39:43.256Z,77.86
2022-12-08T19:42:33.749Z,77.62
2022-12-08T19:45:08.228Z,77.67
2022-12-08T19:47:36.539Z,77.81
2022-12-08T19:50:20.277Z,77.56
2022-12-08T19:52:48.177Z,77.56
2022-12-08T19:55:19.638Z,77.33
2022-12-08T19:57:51.665Z,77.27
2022-12-08T20:00:20.803Z,77.14
2022-12-08T20:02:50.183Z,76.93
2022-12-08T20:05:19.008Z,76.52
2022-12-08T20:07:50.345Z,76.62
2022-12-08T20:10:23.159Z,76.19
2022-12-08T20:12:51.349Z,75.98
2022-12-08T20:15:20.641Z,75.88
2022-12-08T20:17:49.300Z,75.72
2022-12-08T20:20:21.560Z,75.72
2022-12-08T20:22:49.906Z,75.39
2022-12-08T20:25:18.682Z,75.38
2022-12-08T20:27:48.273Z,75.12
2022-12-08T20:30:17.365Z,75.38
2022-12-08T20:32:45.762Z,75.72
2022-12-08T20:35:15.398Z,75.60
2022-12-08T20:37:43.411Z,75.32
2022-12-08T20:40:12.118Z,75.42
2022-12-08T20:42:40.139Z,75.50
2022-12-08T20:45:11.147Z,75.56
2022-12-08T20:47:39.853Z,75.74
2022-12-08T20:50:09.856Z,75.61
2022-12-08T20:52:38.677Z,75.90
2022-12-08T20:55:07.895Z,75.88
2022-12-08T20:57:36.396Z,75.90
2022-12-08T21:00:06.120Z,75.94
2022-12-08T21:02:36.538Z,75.86
2022-12-08T21:05:07.554Z,75.93
2022-12-08T21:07:36.267Z,75.72
2022-12-08T21:10:12.405Z,75.91
2022-12-08T21:12:40.855Z,75.40
2022-12-08T21:15:11.980Z,75.39
2022-12-08T21:17:42.053Z,75.41
2022-12-08T21:20:12.938Z,75.65
2022-12-08T21:22:42.393Z,75.71
2022-12-08T21:25:10.900Z,75.45
2022-12-08T21:27:39.797Z,75.48
2022-12-08T21:30:10.233Z,75.76
2022-12-08T21:32:39.644Z,75.73
2022-12-08T21:35:10.765Z,76.10
2022-12-08T21:37:39.340Z,76.07
2022-12-08T21:40:10.376Z,76.27
2022-12-08T21:42:45.074Z,76.03
2022-12-08T21:45:15.485Z,76.04
2022-12-08T21:47:48.246Z,76.42
2022-12-08T21:50:18.939Z,76.25
2022-12-08T21:52:48.622Z,76.25
2022-12-08T21:55:19.118Z,76.25
2022-12-08T21:57:49.889Z,76.35
2022-12-08T22:00:19.638Z,76.30
2022-12-08T22:02:48.781Z,76.33
2022-12-08T22:05:18.974Z,76.83
2022-12-08T22:07:47.123Z,77.29
2022-12-08T22:10:16.793Z,77.92
2022-12-08T22:12:45.030Z,77.81
2022-12-08T22:15:14.204Z,77.87
2022-12-08T22:17:44.627Z,78.00
2022-12-08T22:20:14.751Z,77.74
2022-12-08T22:22:45.681Z,77.59
2022-12-08T22:25:14.999Z,77.36
2022-12-08T22:27:47.179Z,77.32
2022-12-08T22:30:31.797Z,77.15
2022-12-08T22:33:02.601Z,77.28
2022-12-08T22:35:30.738Z,77.59
2022-12-08T22:38:00.183Z,77.77
2022-12-08T22:40:28.609Z,77.54
2022-12-08T22:42:56.706Z,77.18
2022-12-08T22:45:24.910Z,76.72
2022-12-08T22:47:52.861Z,76.28
2022-12-08T22:50:21.251Z,76.36
2022-12-08T22:52:49.403Z,76.12
2022-12-08T22:55:19.169Z,76.12
2022-12-08T22:57:47.284Z,76.15
2022-12-08T23:00:16.163Z,76.19
2022-12-08T23:02:44.138Z,76.35
2022-12-08T23:05:12.617Z,76.22
2022-12-08T23:07:41.258Z,76.51
2022-12-08T23:10:11.022Z,76.45
2022-12-08T23:12:40.566Z,76.40
2022-12-08T23:15:09.565Z,76.53
2022-12-08T23:17:37.905Z,76.47
2022-12-08T23:20:08.008Z,76.50
2022-12-08T23:22:36.173Z,76.53
2022-12-08T23:25:05.157Z,76.71
2022-12-08T23:27:33.496Z,76.63
2022-12-08T23:30:03.054Z,76.79
2022-12-08T23:32:31.369Z,76.93
2022-12-08T23:34:59.810Z,77.00
2022-12-08T23:37:28.901Z,77.36
2022-12-08T23:39:57.190Z,77.47
2022-12-08T23:42:25.249Z,77.76
2022-12-08T23:44:53.603Z,77.70
2022-12-08T23:47:23.053Z,77.89
2022-12-08T23:49:51.284Z,78.15
2022-12-08T23:52:19.507Z,78.05
2022-12-08T23:54:47.703Z,78.27
2022-12-08T23:57:15.842Z,78.00
2022-12-08T23:59:44.575Z,78.36
